Time;durP1;ratioP1;P1;durP2;ratioP2;P2;SDS_P1;SDS_P2;PMS_P1;PMS_P2;Temp;Humidity;BMP_temperature;BMP_pressure;BME280_temperature;BME280_humidity;BME280_pressure;Samples;Min_cycle;Max_cycle;Signal;HPM_P1;HPM_P2
2023/11/05 00:00:18;;;;;;;2.30;2.10;;;;;;;14.47;100.00;97021.38;109646;1251;74361;-62
2023/11/05 00:02:45;;;;;;;1.90;1.70;;;;;;;14.49;100.00;96998.53;109556;1253;66351;-59
2023/11/05 00:05:14;;;;;;;3.60;3.40;;;;;;;14.66;100.00;96992.94;109223;1251;72854;-60
2023/11/05 00:07:41;;;;;;;5.80;1.70;;;;;;;14.59;100.00;96998.66;109613;1253;61809;-60
2023/11/05 00:10:09;;;;;;;2.80;2.60;;;;;;;14.80;100.00;97014.77;109396;1251;59891;-62
2023/11/05 00:12:36;;;;;;;2.10;2.00;;;;;;;14.99;100.00;97015.59;109681;1251;75485;-64
2023/11/05 00:15:03;;;;;;;2.70;2.20;;;;;;;15.00;100.00;97012.70;109677;1253;68688;-64
2023/11/05 00:17:30;;;;;;;2.80;2.20;;;;;;;14.91;100.00;97003.34;109608;1255;71779;-60
2023/11/05 00:19:57;;;;;;;2.00;1.80;;;;;;;14.79;100.00;96995.14;109668;1250;61771;-60
2023/11/05 00:22:24;;;;;;;2.50;1.70;;;;;;;14.84;100.00;96994.88;109620;1253;60306;-59
2023/11/05 00:24:50;;;;;;;1.80;1.70;;;;;;;14.90;100.00;96999.05;109663;1253;75358;-61
2023/11/05 00:27:17;;;;;;;2.20;2.00;;;;;;;14.77;100.00;97010.38;109651;1251;67497;-62
2023/11/05 00:29:44;;;;;;;6.00;2.80;;;;;;;14.86;100.00;97038.33;109630;1252;72662;-64
2023/11/05 00:32:11;;;;;;;2.40;1.80;;;;;;;14.83;100.00;97063.99;109651;1251;62075;-64
2023/11/05 00:34:38;;;;;;;2.30;2.10;;;;;;;14.89;100.00;97086.41;109635;1251;60373;-64
2023/11/05 00:37:04;;;;;;;2.30;1.90;;;;;;;14.99;100.00;97095.18;109661;1251;74041;-64
2023/11/05 00:39:31;;;;;;;4.30;2.10;;;;;;;15.07;100.00;97102.19;109249;1251;67492;-64
2023/11/05 00:41:57;;;;;;;1.80;1.70;;;;;;;14.96;100.00;97094.54;109634;1251;71384;-63
2023/11/05 00:44:24;;;;;;;3.00;2.10;;;;;;;14.91;100.00;97084.20;109612;1251;59792;-64
2023/11/05 00:46:51;;;;;;;2.50;1.90;;;;;;;15.00;100.00;97090.34;109674;1251;60183;-63
2023/11/05 00:49:17;;;;;;;18.70;5.00;;;;;;;14.94;100.00;97090.31;109657;1251;75537;-63
2023/11/05 00:51:44;;;;;;;11.00;10.00;;;;;;;15.03;100.00;97090.13;109627;1251;68724;-64
2023/11/05 00:54:11;;;;;;;24.20;22.10;;;;;;;14.96;100.00;97087.75;109636;1253;71464;-63
2023/11/05 00:56:37;;;;;;;49.70;37.40;;;;;;;14.94;100.00;97085.83;109624;1251;60645;-63
2023/11/05 00:59:04;;;;;;;33.90;17.60;;;;;;;14.93;100.00;97081.64;109654;1251;59833;-63
2023/11/05 01:01:31;;;;;;;97.80;54.40;;;;;;;14.98;100.00;97073.77;109673;1251;75502;-63
2023/11/05 01:03:57;;;;;;;25.00;16.30;;;;;;;15.05;100.00;97075.34;109553;1253;67346;-64
2023/11/05 01:06:24;;;;;;;41.40;24.30;;;;;;;15.04;100.00;97073.48;109607;1254;71166;-64
2023/11/05 01:08:52;;;;;;;166.80;93.80;;;;;;;15.00;100.00;97067.16;109614;1251;61875;-63
2023/11/05 01:11:20;;;;;;;60.90;35.60;;;;;;;15.09;100.00;97068.60;109641;1251;60362;-64
2023/11/05 01:13:46;;;;;;;159.00;96.50;;;;;;;14.93;100.00;97072.67;109485;1251;74035;-64
2023/11/05 01:16:13;;;;;;;95.10;63.80;;;;;;;15.07;100.00;97087.98;109646;1251;67422;-64
2023/11/05 01:18:40;;;;;;;153.40;108.70;;;;;;;14.99;100.00;97100.34;109632;1255;72567;-64
2023/11/05 01:21:08;;;;;;;174.40;111.00;;;;;;;14.90;100.00;97109.81;109637;1251;59821;-63
2023/11/05 01:23:35;;;;;;;32.40;26.90;;;;;;;14.80;100.00;97104.12;109696;1251;59655;-64
2023/11/05 01:26:01;;;;;;;30.40;27.70;;;;;;;14.71;100.00;97102.09;109022;1255;74723;-64
2023/11/05 01:28:28;;;;;;;13.30;12.10;;;;;;;14.70;100.00;97104.98;109299;1254;68697;-61
2023/11/05 01:30:55;;;;;;;6.20;5.70;;;;;;;14.71;100.00;97103.91;109478;1255;71254;-64
2023/11/05 01:33:21;;;;;;;4.10;3.80;;;;;;;14.61;100.00;97100.61;109467;1254;60310;-62
2023/11/05 01:35:48;;;;;;;3.70;3.00;;;;;;;14.58;100.00;97104.74;109457;1258;60185;-60
2023/11/05 01:38:14;;;;;;;2.70;2.50;;;;;;;14.60;100.00;97109.14;109494;1253;75499;-60
2023/11/05 01:40:41;;;;;;;3.40;2.90;;;;;;;14.69;100.00;97114.51;109488;1254;59852;-60
2023/11/05 01:43:08;;;;;;;6.10;2.20;;;;;;;14.64;100.00;97113.75;109140;1256;72965;-60
2023/11/05 01:45:34;;;;;;;3.30;1.90;;;;;;;14.60;100.00;97109.14;109319;1253;61740;-60
2023/11/05 01:48:01;;;;;;;25.80;6.00;;;;;;;14.69;100.00;97106.63;109486;1253;59915;-60
2023/11/05 01:50:28;;;;;;;20.70;18.80;;;;;;;14.76;100.00;97110.95;109498;1254;75181;-63
2023/11/05 01:52:55;;;;;;;20.90;18.80;;;;;;;14.90;100.00;97116.67;109531;1254;67755;-60
2023/11/05 01:55:23;;;;;;;44.50;36.80;;;;;;;14.78;100.00;97125.95;109371;1254;71508;-60
2023/11/05 01:57:50;;;;;;;66.10;48.60;;;;;;;14.74;100.00;97125.55;109554;1253;62246;-60
2023/11/05 02:00:17;;;;;;;51.10;38.50;;;;;;;14.75;100.00;97129.88;109562;1253;60305;-60
2023/11/05 02:02:44;;;;;;;27.50;21.70;;;;;;;14.54;100.00;97139.42;109412;1254;74263;-61
2023/11/05 02:05:11;;;;;;;17.80;15.20;;;;;;;14.64;100.00;97162.73;109611;1252;67494;-63
2023/11/05 02:07:37;;;;;;;28.50;21.90;;;;;;;14.50;100.00;97187.48;109265;1254;72554;-60
2023/11/05 02:10:05;;;;;;;42.30;32.60;;;;;;;14.50;100.00;97207.15;109658;1251;61920;-64
2023/11/05 02:12:31;;;;;;;27.10;23.80;;;;;;;14.40;100.00;97224.48;109304;1252;59825;-60
2023/11/05 02:14:58;;;;;;;17.70;16.00;;;;;;;14.20;100.00;97235.13;109750;1250;74468;-64
2023/11/05 02:17:25;;;;;;;13.50;11.50;;;;;;;14.44;100.00;97240.41;109738;1251;68691;-64
2023/11/05 02:19:52;;;;;;;7.00;6.30;;;;;;;14.33;100.00;97250.20;109589;1253;74045;-62
2023/11/05 02:22:19;;;;;;;3.40;3.10;;;;;;;14.37;100.00;97257.99;109579;1253;60739;-61
2023/11/05 02:24:45;;;;;;;3.30;3.10;;;;;;;14.38;100.00;97271.36;109393;1253;59668;-63
2023/11/05 02:27:12;;;;;;;3.90;3.10;;;;;;;14.46;100.00;97277.73;109748;1251;74366;-62
2023/11/05 02:29:39;;;;;;;9.20;3.80;;;;;;;14.32;100.00;97275.71;109643;1251;68550;-62
2023/11/05 02:32:06;;;;;;;3.00;2.70;;;;;;;14.51;100.00;97289.38;109624;1251;71506;-62
2023/11/05 02:34:33;;;;;;;4.10;3.50;;;;;;;14.69;100.00;97300.27;109747;1251;61957;-64
2023/11/05 02:36:59;;;;;;;6.00;5.50;;;;;;;14.68;100.00;97308.79;109761;1251;59854;-62
2023/11/05 02:39:26;;;;;;;9.60;8.70;;;;;;;14.58;100.00;97311.91;109347;1250;73984;-61
2023/11/05 02:41:53;;;;;;;19.20;17.20;;;;;;;14.47;100.00;97320.64;109768;1250;66764;-60
2023/11/05 02:44:19;;;;;;;8.80;7.60;;;;;;;14.71;100.00;97332.48;109740;1251;71569;-62
2023/11/05 02:46:46;;;;;;;9.30;8.50;;;;;;;14.80;100.00;97346.05;109726;1251;59734;-61
2023/11/05 02:49:12;;;;;;;6.90;6.00;;;;;;;14.89;100.00;97341.42;109718;1251;60260;-64
2023/11/05 02:51:39;;;;;;;7.30;6.50;;;;;;;14.54;100.00;97335.85;109386;1251;74271;-61
2023/11/05 02:54:06;;;;;;;9.10;8.30;;;;;;;14.87;100.00;97340.14;109622;1251;67473;-63
2023/11/05 02:56:33;;;;;;;33.70;30.20;;;;;;;14.64;100.00;97337.20;109773;1251;72460;-63
2023/11/05 02:58:59;;;;;;;28.40;20.60;;;;;;;14.73;100.00;97335.48;109757;1250;61282;-61
2023/11/05 03:01:30;;;;;;;75.90;56.00;;;;;;;14.87;100.00;97339.80;109602;1251;59802;-60
2023/11/05 03:03:56;;;;;;;20.40;13.60;;;;;;;15.00;100.00;97352.58;109368;1251;75522;-59
2023/11/05 03:06:24;;;;;;;75.00;54.00;;;;;;;14.76;100.00;97358.89;109595;1251;68749;-62
2023/11/05 03:08:50;;;;;;;43.20;31.90;;;;;;;14.89;100.00;97370.11;109543;1253;72702;-62
2023/11/05 03:11:17;;;;;;;27.30;23.40;;;;;;;14.67;100.00;97372.10;109411;1252;61981;-64
2023/11/05 03:13:44;;;;;;;4.60;3.90;;;;;;;14.77;100.00;97368.79;109686;1251;60257;-64
2023/11/05 03:16:12;;;;;;;20.70;18.50;;;;;;;14.86;100.00;97375.05;109624;1251;75556;-62
2023/11/05 03:18:42;;;;;;;19.30;17.50;;;;;;;14.78;100.00;97374.08;109685;1250;68573;-61
2023/11/05 03:21:13;;;;;;;25.40;22.80;;;;;;;14.76;100.00;97381.05;109663;1251;71550;-60
2023/11/05 03:23:40;;;;;;;16.80;15.10;;;;;;;14.89;100.00;97393.59;109590;1251;60797;-62
2023/11/05 03:26:07;;;;;;;20.50;18.30;;;;;;;14.72;100.00;97402.73;109660;1251;59811;-64
2023/11/05 03:28:34;;;;;;;27.10;21.20;;;;;;;14.69;100.00;97401.02;109559;1251;76082;-64
2023/11/05 03:31:00;;;;;;;20.70;17.90;;;;;;;14.66;100.00;97408.48;109657;1251;68535;-63
2023/11/05 03:33:27;;;;;;;14.90;12.90;;;;;;;14.60;100.00;97405.86;109620;1251;71447;-63
2023/11/05 03:35:54;;;;;;;10.20;9.30;;;;;;;14.59;100.00;97413.09;109617;1251;60581;-64
2023/11/05 03:38:20;;;;;;;20.70;16.30;;;;;;;14.59;100.00;97419.18;109650;1251;60377;-64
2023/11/05 03:40:47;;;;;;;10.30;7.10;;;;;;;14.56;100.00;97412.49;109375;1251;75671;-63
2023/11/05 03:43:14;;;;;;;8.40;6.50;;;;;;;14.49;100.00;97409.09;109354;1251;68609;-61
2023/11/05 03:45:41;;;;;;;3.30;2.70;;;;;;;14.37;100.00;97401.10;109628;1251;71282;-61
2023/11/05 03:48:07;;;;;;;5.90;3.30;;;;;;;14.25;100.00;97402.43;109622;1251;60565;-64
2023/11/05 03:50:34;;;;;;;11.90;10.70;;;;;;;14.26;100.00;97406.23;109390;1251;59812;-64
2023/11/05 03:53:01;;;;;;;51.30;38.00;;;;;;;14.34;100.00;97402.98;109686;1251;75462;-64
2023/11/05 03:55:28;;;;;;;66.10;51.20;;;;;;;14.29;100.00;97408.50;109605;1251;68880;-63
2023/11/05 03:57:55;;;;;;;28.10;20.50;;;;;;;14.29;100.00;97418.77;109383;1251;71378;-62
2023/11/05 04:00:21;;;;;;;5.70;5.10;;;;;;;14.31;100.00;97427.30;109439;1252;60501;-62
2023/11/05 04:02:48;;;;;;;5.00;3.80;;;;;;;14.22;100.00;97437.70;109140;1253;59898;-64
2023/11/05 04:05:15;;;;;;;3.10;2.40;;;;;;;14.30;100.00;97451.72;109618;1251;75405;-61
2023/11/05 04:07:42;;;;;;;2.80;2.60;;;;;;;13.98;100.00;97453.98;109613;1251;68968;-60
2023/11/05 04:10:10;;;;;;;3.40;2.80;;;;;;;14.04;100.00;97456.98;109731;1250;71890;-63
2023/11/05 04:12:37;;;;;;;3.10;2.30;;;;;;;14.15;100.00;97453.11;109702;1251;60437;-61
2023/11/05 04:15:06;;;;;;;5.20;3.30;;;;;;;14.18;100.00;97452.06;109726;1250;59639;-62
2023/11/05 04:17:34;;;;;;;2.70;2.50;;;;;;;14.20;100.00;97448.11;109476;1251;75465;-60
2023/11/05 04:20:01;;;;;;;2.90;2.10;;;;;;;14.15;100.00;97454.66;109780;1250;67259;-61
2023/11/05 04:22:28;;;;;;;3.10;2.60;;;;;;;13.97;100.00;97451.64;109414;1251;71652;-60
2023/11/05 04:24:55;;;;;;;2.80;2.60;;;;;;;14.18;100.00;97448.58;109741;1250;60602;-61
2023/11/05 04:27:22;;;;;;;2.80;2.40;;;;;;;14.12;100.00;97460.67;109767;1250;59981;-64
2023/11/05 04:29:48;;;;;;;6.10;5.50;;;;;;;14.12;100.00;97464.39;109730;1250;73270;-63
2023/11/05 04:32:15;;;;;;;7.70;6.30;;;;;;;14.15;100.00;97466.02;109104;1251;156994;-64
2023/11/05 04:34:42;;;;;;;6.70;6.10;;;;;;;14.21;100.00;97470.66;109535;1251;72650;-62
2023/11/05 04:37:10;;;;;;;4.90;4.20;;;;;;;14.22;100.00;97472.10;109714;1251;60873;-65
2023/11/05 04:39:37;;;;;;;2.60;2.40;;;;;;;14.10;100.00;97475.04;109651;1250;60209;-61
2023/11/05 04:42:06;;;;;;;8.20;4.10;;;;;;;14.12;100.00;97481.57;109758;1250;75472;-64
2023/11/05 04:44:34;;;;;;;7.20;4.20;;;;;;;14.22;100.00;97484.80;109463;1252;68604;-64
2023/11/05 04:47:00;;;;;;;7.50;3.70;;;;;;;14.26;99.88;97493.90;109713;1250;72727;-64
2023/11/05 04:49:28;;;;;;;22.40;9.60;;;;;;;14.09;100.00;97494.88;109349;1256;59735;-64
2023/11/05 04:51:54;;;;;;;48.20;21.40;;;;;;;13.99;100.00;97495.19;109775;1250;59861;-63
2023/11/05 04:54:21;;;;;;;36.90;17.70;;;;;;;14.15;100.00;97500.26;109785;1250;75501;-63
2023/11/05 04:56:48;;;;;;;21.00;8.60;;;;;;;14.04;100.00;97499.77;109461;1251;68317;-64
2023/11/05 04:59:14;;;;;;;3.80;2.90;;;;;;;13.89;100.00;97500.52;109623;1250;72620;-64
2023/11/05 05:01:41;;;;;;;4.60;3.30;;;;;;;14.02;100.00;97508.47;109736;1250;59922;-64
2023/11/05 05:04:08;;;;;;;6.20;3.10;;;;;;;14.07;100.00;97508.52;109719;1250;60250;-63
2023/11/05 05:06:34;;;;;;;4.40;3.10;;;;;;;14.17;99.85;97506.44;109761;1250;74107;-61
2023/11/05 05:09:02;;;;;;;5.40;3.90;;;;;;;14.19;99.52;97504.52;109620;1251;68581;-62
2023/11/05 05:11:31;;;;;;;7.60;5.00;;;;;;;14.29;99.01;97503.11;109600;1251;72530;-61
2023/11/05 05:13:58;;;;;;;8.80;3.60;;;;;;;14.43;97.98;97509.64;109773;1250;61161;-62
2023/11/05 05:16:28;;;;;;;11.20;4.90;;;;;;;14.27;98.66;97506.45;109776;1250;60190;-61
2023/11/05 05:18:55;;;;;;;14.50;7.80;;;;;;;14.21;98.85;97504.90;109592;1251;74262;-62
2023/11/05 05:21:21;;;;;;;6.60;3.90;;;;;;;14.15;99.35;97508.27;109736;1251;68587;-61
2023/11/05 05:23:48;;;;;;;5.30;3.90;;;;;;;14.23;98.96;97515.23;109771;1250;72700;-63
2023/11/05 05:26:15;;;;;;;14.70;8.10;;;;;;;14.52;97.36;97524.95;109756;1250;59746;-60
2023/11/05 05:28:44;;;;;;;11.70;7.50;;;;;;;14.47;98.08;97538.58;109785;1250;59743;-60
2023/11/05 05:31:11;;;;;;;17.90;10.10;;;;;;;14.57;98.67;97551.13;109787;1250;74198;-60
2023/11/05 05:33:37;;;;;;;41.50;21.80;;;;;;;14.95;96.74;97564.66;109764;1250;68575;-60
2023/11/05 05:36:04;;;;;;;32.90;19.00;;;;;;;14.83;96.87;97569.70;109582;1250;72425;-60
2023/11/05 05:38:31;;;;;;;90.20;55.90;;;;;;;14.96;96.55;97572.01;109388;1251;59921;-60
2023/11/05 05:40:58;;;;;;;20.60;13.70;;;;;;;15.23;94.38;97578.48;109786;1250;59848;-59
2023/11/05 05:43:24;;;;;;;32.80;18.90;;;;;;;15.30;93.64;97585.81;109758;1250;75537;-62
2023/11/05 05:45:51;;;;;;;87.60;49.50;;;;;;;15.54;93.25;97588.98;109370;1250;67594;-60
2023/11/05 05:48:18;;;;;;;141.60;62.20;;;;;;;15.71;91.93;97593.95;109769;1250;72570;-61
2023/11/05 05:50:44;;;;;;;152.10;59.10;;;;;;;15.51;92.15;97602.77;109759;1250;61950;-62
2023/11/05 05:53:11;;;;;;;91.30;37.50;;;;;;;15.46;92.75;97611.23;109743;1250;60411;-63
2023/11/05 05:55:41;;;;;;;118.00;47.80;;;;;;;15.47;93.41;97616.59;109660;1250;75549;-60
2023/11/05 05:58:07;;;;;;;314.40;125.30;;;;;;;15.72;93.83;97623.20;109604;1251;69096;-59
2023/11/05 06:00:34;;;;;;;73.10;29.70;;;;;;;16.05;93.39;97626.73;109525;1252;72566;-60
2023/11/05 06:03:01;;;;;;;65.00;26.00;;;;;;;16.19;91.03;97628.95;109524;1252;60479;-64
2023/11/05 06:05:28;;;;;;;277.20;114.00;;;;;;;16.01;91.42;97628.88;109482;1252;60262;-61
2023/11/05 06:07:55;;;;;;;149.40;60.30;;;;;;;16.43;90.47;97632.04;109596;1250;75460;-60
2023/11/05 06:10:22;;;;;;;94.50;38.90;;;;;;;16.56;89.65;97640.23;109507;1251;68541;-64
2023/11/05 06:12:49;;;;;;;50.40;21.80;;;;;;;16.49;89.83;97648.23;109575;1250;72667;-65
2023/11/05 06:15:16;;;;;;;52.40;23.20;;;;;;;16.48;89.89;97659.17;109422;1250;60633;-62
2023/11/05 06:17:42;;;;;;;162.50;68.60;;;;;;;16.29;90.51;97660.90;109443;1252;59810;-61
2023/11/05 06:20:10;;;;;;;47.60;22.30;;;;;;;16.22;90.99;97666.48;109549;1252;75289;-64
2023/11/05 06:22:37;;;;;;;22.80;11.30;;;;;;;16.40;91.82;97670.14;109273;1251;68455;-60
2023/11/05 06:25:08;;;;;;;71.20;31.40;;;;;;;16.56;90.37;97683.05;109588;1252;71349;-63
2023/11/05 06:27:35;;;;;;;32.70;14.70;;;;;;;16.44;90.08;97683.69;109560;1252;61780;-64
2023/11/05 06:30:03;;;;;;;170.80;70.10;;;;;;;16.78;90.01;97686.13;109576;1252;60391;-63
2023/11/05 06:32:30;;;;;;;14.10;6.90;;;;;;;16.64;88.22;97681.67;109306;1251;76000;-64
2023/11/05 06:34:57;;;;;;;51.90;23.50;;;;;;;16.64;88.76;97672.15;109319;1253;68609;-63
2023/11/05 06:37:27;;;;;;;37.60;20.10;;;;;;;16.69;88.77;97663.70;109571;1252;70852;-61
2023/11/05 06:39:53;;;;;;;8.90;5.90;;;;;;;16.67;89.00;97652.59;109514;1252;61789;-61
2023/11/05 06:42:20;;;;;;;5.50;4.00;;;;;;;16.86;88.51;97646.60;109532;1252;59785;-60
2023/11/05 06:44:47;;;;;;;47.90;21.50;;;;;;;16.93;87.01;97645.67;109567;1252;73633;-62
2023/11/05 06:47:13;;;;;;;38.50;21.80;;;;;;;17.21;84.98;97645.71;109547;1252;67753;-62
2023/11/05 06:49:40;;;;;;;225.00;107.80;;;;;;;17.39;83.17;97647.23;109383;1252;72597;-62
2023/11/05 06:52:07;;;;;;;188.90;90.80;;;;;;;17.72;81.23;97652.15;109538;1252;62055;-63
2023/11/05 06:54:34;;;;;;;127.60;60.20;;;;;;;17.90;80.26;97653.89;109521;1252;59830;-64
2023/11/05 06:57:03;;;;;;;86.10;40.00;;;;;;;18.04;76.54;97654.30;109616;1252;75289;-64
2023/11/05 06:59:29;;;;;;;19.20;11.00;;;;;;;18.01;76.29;97654.64;109615;1252;69015;-64
2023/11/05 07:01:56;;;;;;;56.10;28.30;;;;;;;18.39;75.13;97657.35;109542;1252;71820;-65
2023/11/05 07:04:23;;;;;;;71.40;35.30;;;;;;;18.72;73.11;97664.27;109523;1252;60369;-64
2023/11/05 07:06:50;;;;;;;9.00;5.80;;;;;;;18.77;69.56;97667.02;109696;1250;60148;-65
2023/11/05 07:09:16;;;;;;;9.80;6.00;;;;;;;18.64;71.18;97663.69;109669;1250;74478;-65
2023/11/05 07:11:43;;;;;;;7.00;4.80;;;;;;;18.92;71.93;97669.46;109738;1250;67564;-66
2023/11/05 07:14:10;;;;;;;10.50;6.40;;;;;;;18.84;73.44;97671.94;109705;1251;72579;-65
2023/11/05 07:16:37;;;;;;;6.40;4.80;;;;;;;18.80;74.28;97669.58;109741;1250;61739;-65
2023/11/05 07:19:04;;;;;;;3.60;2.80;;;;;;;18.95;72.82;97667.69;109736;1250;59847;-65
2023/11/05 07:21:31;;;;;;;9.90;3.70;;;;;;;18.95;72.58;97658.81;109762;1250;75581;-65
2023/11/05 07:23:58;;;;;;;10.00;5.10;;;;;;;18.95;71.56;97656.27;109734;1250;68013;-66
2023/11/05 07:26:25;;;;;;;7.30;4.50;;;;;;;18.78;71.47;97653.69;109739;1250;72372;-66
2023/11/05 07:28:52;;;;;;;6.80;4.20;;;;;;;18.88;72.32;97657.73;109754;1250;62051;-64
2023/11/05 07:31:21;;;;;;;6.00;4.80;;;;;;;19.13;70.78;97660.44;109653;1250;59632;-67
2023/11/05 07:33:48;;;;;;;8.30;4.40;;;;;;;19.18;71.17;97665.60;109450;1252;74204;-66
2023/11/05 07:36:15;;;;;;;7.30;4.30;;;;;;;19.20;72.53;97670.06;109496;1252;67357;-65
2023/11/05 07:38:41;;;;;;;4.90;3.50;;;;;;;19.51;70.64;97673.59;109472;1251;72487;-66
2023/11/05 07:41:08;;;;;;;5.10;3.70;;;;;;;18.93;71.38;97679.05;109559;1252;60507;-64
2023/11/05 07:43:35;;;;;;;5.20;3.50;;;;;;;18.99;68.83;97685.14;109487;1252;60046;-63
2023/11/05 07:46:01;;;;;;;4.00;2.90;;;;;;;18.52;69.97;97684.98;109584;1252;73001;-65
2023/11/05 07:48:28;;;;;;;4.10;3.50;;;;;;;18.72;70.16;97688.72;109497;1252;68709;-64
2023/11/05 07:50:55;;;;;;;11.00;6.00;;;;;;;18.99;68.50;97695.48;109478;1250;72721;-64
2023/11/05 07:53:21;;;;;;;5.30;4.00;;;;;;;19.28;65.83;97695.73;109316;1254;61842;-64
2023/11/05 07:55:48;;;;;;;8.40;4.00;;;;;;;18.57;69.55;97700.02;109336;1251;60148;-64
2023/11/05 07:58:15;;;;;;;4.80;3.50;;;;;;;18.54;70.47;97701.41;109688;1250;75245;-64
2023/11/05 08:00:44;;;;;;;7.60;4.00;;;;;;;18.63;71.55;97700.22;109770;1250;68747;-63
2023/11/05 08:03:11;;;;;;;8.50;6.40;;;;;;;18.95;70.65;97705.02;109670;1250;72499;-63
2023/11/05 08:05:38;;;;;;;3.00;1.90;;;;;;;19.28;68.46;97703.48;109573;1251;60882;-65
2023/11/05 08:08:04;;;;;;;5.40;3.00;;;;;;;19.37;67.40;97700.58;109453;1253;60244;-60
2023/11/05 08:10:32;;;;;;;2.40;2.10;;;;;;;19.52;66.42;97696.08;109557;1252;74650;-61
2023/11/05 08:12:58;;;;;;;7.10;3.70;;;;;;;19.78;64.39;97707.73;109220;1253;68806;-65
2023/11/05 08:15:25;;;;;;;3.80;2.00;;;;;;;19.90;65.14;97710.59;109544;1252;72438;-64
2023/11/05 08:17:52;;;;;;;2.10;1.70;;;;;;;20.06;64.41;97710.58;109490;1252;59873;-62
2023/11/05 08:20:18;;;;;;;2.60;2.10;;;;;;;20.48;63.04;97706.59;109529;1252;59989;-64
2023/11/05 08:22:45;;;;;;;4.50;2.20;;;;;;;20.54;61.08;97704.73;109528;1252;75512;-64
2023/11/05 08:25:12;;;;;;;2.80;2.00;;;;;;;20.43;62.34;97711.08;109546;1252;68604;-62
2023/11/05 08:27:42;;;;;;;3.60;2.10;;;;;;;20.37;61.45;97705.60;109532;1252;72940;-64
2023/11/05 08:30:11;;;;;;;4.30;3.50;;;;;;;20.56;59.82;97707.27;109517;1252;60597;-64
2023/11/05 08:32:39;;;;;;;3.10;2.30;;;;;;;20.67;59.35;97710.48;109538;1252;59826;-63
2023/11/05 08:35:06;;;;;;;6.10;3.00;;;;;;;20.62;60.01;97719.65;109540;1252;74032;-64
2023/11/05 08:37:34;;;;;;;12.50;8.00;;;;;;;20.87;57.83;97728.94;109513;1252;67203;-65
2023/11/05 08:40:07;;;;;;;3.60;2.90;;;;;;;20.88;56.80;97726.14;109336;1252;72668;-64
2023/11/05 08:42:38;;;;;;;6.40;4.30;;;;;;;21.04;58.31;97720.16;109507;1252;61784;-64
2023/11/05 08:45:06;;;;;;;4.60;2.30;;;;;;;21.25;58.16;97717.34;109533;1252;60164;-62
2023/11/05 08:47:34;;;;;;;8.60;4.80;;;;;;;21.00;57.38;97712.31;109319;1252;74290;-63
2023/11/05 08:50:02;;;;;;;5.70;2.30;;;;;;;20.87;57.76;97712.42;109495;1252;67276;-63
2023/11/05 08:52:31;;;;;;;7.30;5.40;;;;;;;20.87;58.64;97710.17;109489;1252;72361;-64
2023/11/05 08:54:59;;;;;;;3.70;2.50;;;;;;;21.15;57.34;97707.45;109525;1252;61939;-63
2023/11/05 08:57:26;;;;;;;7.80;3.60;;;;;;;21.17;57.21;97703.35;109528;1252;59805;-61
2023/11/05 08:59:53;;;;;;;9.00;4.30;;;;;;;21.90;55.27;97698.27;109495;1252;75292;-63
2023/11/05 09:02:19;;;;;;;3.80;3.10;;;;;;;22.04;53.62;97689.76;109383;1253;67670;-65
2023/11/05 09:04:46;;;;;;;3.70;3.00;;;;;;;21.62;53.31;97685.70;109521;1252;71155;-64
2023/11/05 09:07:13;;;;;;;3.40;2.50;;;;;;;21.53;52.67;97688.18;109554;1252;60631;-64
2023/11/05 09:09:39;;;;;;;4.80;3.00;;;;;;;21.02;54.03;97682.11;109540;1251;60218;-61
2023/11/05 09:12:10;;;;;;;25.40;15.40;;;;;;;21.41;52.74;97677.80;109452;1251;73938;-64
2023/11/05 09:14:37;;;;;;;6.50;2.70;;;;;;;21.69;54.07;97673.85;109272;1251;68743;-61
2023/11/05 09:17:06;;;;;;;9.70;6.60;;;;;;;21.70;53.21;97667.69;109592;1251;72826;-61
2023/11/05 09:19:33;;;;;;;9.30;5.30;;;;;;;21.61;52.74;97674.15;109654;1252;61908;-63
2023/11/05 09:22:00;;;;;;;6.00;2.00;;;;;;;21.61;52.75;97673.08;109690;1251;60290;-60
2023/11/05 09:24:29;;;;;;;2.70;2.00;;;;;;;22.20;52.41;97669.15;109668;1250;76499;-61
2023/11/05 09:26:56;;;;;;;2.40;1.90;;;;;;;21.72;52.73;97661.95;109581;1250;68678;-60
2023/11/05 09:29:23;;;;;;;2.10;1.70;;;;;;;21.51;53.09;97656.55;109628;1251;72834;-60
2023/11/05 09:31:50;;;;;;;2.90;1.40;;;;;;;20.84;53.48;97651.31;109684;1251;60537;-60
2023/11/05 09:34:16;;;;;;;16.00;9.80;;;;;;;21.26;54.00;97648.28;109661;1251;60200;-62
2023/11/05 09:36:46;;;;;;;3.00;2.10;;;;;;;21.53;52.78;97646.91;109387;1251;75370;-60
2023/11/05 09:39:13;;;;;;;4.10;2.80;;;;;;;21.38;53.22;97642.75;109695;1250;68560;-63
2023/11/05 09:41:39;;;;;;;5.40;2.10;;;;;;;21.62;52.97;97634.77;109642;1251;72653;-60
2023/11/05 09:44:06;;;;;;;2.50;1.90;;;;;;;21.47;51.45;97635.77;109291;1252;61760;-61
2023/11/05 09:46:34;;;;;;;5.20;2.90;;;;;;;21.86;50.70;97637.06;109241;1252;60162;-64
2023/11/05 09:49:01;;;;;;;3.60;1.70;;;;;;;22.03;51.25;97638.00;109132;1252;74717;-61
2023/11/05 09:51:28;;;;;;;2.10;1.70;;;;;;;22.14;50.50;97640.05;109646;1251;68535;-60
2023/11/05 09:53:55;;;;;;;2.50;2.00;;;;;;;22.07;50.13;97637.19;109646;1251;71456;-62
2023/11/05 09:56:24;;;;;;;2.30;1.70;;;;;;;22.15;49.88;97633.27;109654;1251;60337;-60
2023/11/05 09:58:50;;;;;;;1.80;1.40;;;;;;;22.25;49.74;97632.60;109490;1251;60101;-61
2023/11/05 10:01:17;;;;;;;2.50;1.60;;;;;;;21.86;49.42;97635.96;109687;1251;75506;-63
2023/11/05 10:03:44;;;;;;;1.90;1.20;;;;;;;21.87;50.25;97642.38;109569;1252;67562;-63
2023/11/05 10:06:15;;;;;;;3.20;2.60;;;;;;;21.83;49.46;97641.94;109541;1252;71539;-60
2023/11/05 10:08:42;;;;;;;5.50;4.00;;;;;;;21.99;50.10;97641.32;109659;1250;59756;-60
2023/11/05 10:11:08;;;;;;;13.40;12.00;;;;;;;21.86;50.55;97644.31;109759;1250;60218;-61
2023/11/05 10:13:35;;;;;;;29.70;21.70;;;;;;;21.76;49.39;97641.63;109732;1250;74625;-60
2023/11/05 10:16:04;;;;;;;16.50;11.80;;;;;;;21.71;49.56;97643.08;109783;1250;69923;-61
2023/11/05 10:18:36;;;;;;;11.70;6.70;;;;;;;21.54;49.24;97641.64;109738;1250;71838;-61
2023/11/05 10:21:04;;;;;;;12.20;9.90;;;;;;;21.05;50.09;97633.60;109512;1251;59815;-60
2023/11/05 10:23:32;;;;;;;3.20;2.70;;;;;;;21.41;50.18;97637.42;109752;1250;59827;-59
2023/11/05 10:25:59;;;;;;;9.70;6.50;;;;;;;21.15;51.22;97631.63;109419;1253;75512;-61
2023/11/05 10:28:27;;;;;;;12.10;7.30;;;;;;;20.83;53.15;97636.02;109596;1252;68894;-59
2023/11/05 10:30:54;;;;;;;8.20;7.30;;;;;;;20.61;54.14;97630.46;109466;1251;72879;-60
2023/11/05 10:33:25;;;;;;;11.10;8.30;;;;;;;20.15;55.48;97628.73;109530;1252;63264;-60
2023/11/05 10:35:52;;;;;;;4.00;3.30;;;;;;;20.12;55.73;97633.67;109554;1252;60021;-59
2023/11/05 10:38:18;;;;;;;8.10;6.30;;;;;;;19.86;56.13;97623.34;109557;1252;73941;-59
2023/11/05 10:40:47;;;;;;;4.00;2.50;;;;;;;19.76;56.66;97618.16;109528;1251;67477;-60
2023/11/05 10:43:13;;;;;;;3.70;3.20;;;;;;;19.92;56.08;97612.86;109589;1252;72848;-59
2023/11/05 10:45:40;;;;;;;4.70;3.50;;;;;;;20.15;55.79;97608.58;109589;1251;60794;-60
2023/11/05 10:48:09;;;;;;;9.80;5.30;;;;;;;20.24;56.36;97605.45;109639;1252;59824;-61
2023/11/05 10:50:36;;;;;;;9.70;7.00;;;;;;;20.16;55.89;97611.85;109584;1252;75314;-59
2023/11/05 10:53:04;;;;;;;15.30;9.30;;;;;;;20.35;55.55;97618.39;109560;1252;68453;-59
2023/11/05 10:55:33;;;;;;;7.20;3.90;;;;;;;20.23;56.41;97620.61;109449;1252;72649;-60
2023/11/05 10:58:00;;;;;;;;;;;;;;;19.81;57.75;97613.50;109554;1252;60625;-62
2023/11/05 11:00:44;;;;;;;11.80;8.20;;;;;;;19.94;58.94;97601.15;109609;1252;59740;-60
2023/11/05 11:03:12;;;;;;;3.30;2.80;;;;;;;20.37;58.18;97601.61;109573;1252;75458;-60
2023/11/05 11:05:42;;;;;;;7.60;5.90;;;;;;;20.24;58.60;97602.97;109607;1250;68511;-62
2023/11/05 11:08:11;;;;;;;10.50;7.40;;;;;;;20.34;58.37;97603.35;109631;1251;72676;-62
2023/11/05 11:10:39;;;;;;;;;;;;;;;20.65;57.98;97609.05;109590;1252;61720;-60
2023/11/05 11:13:17;;;;;;;6.90;4.80;;;;;;;20.73;56.61;97611.73;109598;1251;59757;-60